Monte Plata, Dominican Republic
Current Conditions -  °F | °C
As of 3:00 PM on Wednesday 17 Dec 2014 (Local Time) from MDSD Reporting Station
Scattered Clouds Scattered Clouds  
Wind Chill: 86°   Ceiling: Unl
Heat Index: 92°   Visibility: 6mi
Dew Point: 72°   Wind: 14mph
Humidity: 62%   Direction: 60°ENE
Pressure: 29.94"   Gusts: NA
Location:  18.81°N, 69.79°W
Report Text: MDSD 171900Z 06012KT 9999 SCT022 SCT300 30/22 Q1014
Loading
Personal Weather Stations






























Interactive Weather Map New forecast layout! Learn more

10-Day Weather Forecast

Advertisements
Track Severe Weather on mobile